Darstellungsparameter: Aktuell verwendete Einstellungen:
Skalierung der Graphiken ... ?
xyx+y,   Skalierungsfaktor:      Skalierung: Modus: x, Faktor: 1
Darstellungszeitraum ... ?
Vom - - bis: - -   Zeitraum: 12.08.2010 - 18.08.2010
Min/Max/Avg-Anzeige ... ?
Zeige MMA aktuell
Zeige MMA Monat
Zeige MMA alles
Zeige --A aktuell
Zeige --A Monat
Zeige --A alles
Keine MMA-Anzeige
MMA:
Average (ber die Originaldaten)
MMA-Basis: 12.08.2010 - 18.08.2010
Quicknavigation für Darstellung... ?
Tage:      1T, 2T, 3T, 5T -1T -2T -3T -5T +1T +2T +3T +5T
Wochen: 1W, 2W, 3W -1W -2W -3W +1W +2W +3W
Monate: 1M, 3M, 6M -1M -3M -6M +1M +3M +6M
Jahre:    1J, 3J, 5J, 10J -1J -3J -5J -10J +1J +3J +5J +10J
Nutze für die Darstellung ... ?
Originaldaten oder Mittelwerte auf ...
Stundenbasis Tagesbasis Wochenbasis
Monatsbasis Jahresbasis      Datenbasis: Original-Daten
Darstellen als:
Statistik (Auto) Statistik J:M      Darstellung:
Zur Graphik,    zurück zur Übersicht aller Sensoren.
 
Tabellarische Datenbersicht: ?
 
Sensor: Nr:Datum:Temp:Abs-Feuchte:Windchill:Wind:
Aussen-T/F 1 12-08-2010 00:06:02 18.2 C 14.46 g/m*3 18.2 C 0 km/h
2 12-08-2010 00:18:02 18 C 14.28 g/m*3 18 C 0 km/h
3 12-08-2010 00:30:02 17.8 C 14.27 g/m*3 17.8 C 0 km/h
4 12-08-2010 00:42:02 17.7 C 14.18 g/m*3 17.7 C 0 km/h
5 12-08-2010 00:54:02 17.7 C 14.18 g/m*3 17.7 C 0 km/h
6 12-08-2010 01:06:02 17.6 C 14.1 g/m*3 17.6 C 0 km/h
7 12-08-2010 01:18:02 17.5 C 14.01 g/m*3 17.5 C 0 km/h
8 12-08-2010 01:30:02 17.5 C 14.01 g/m*3 17.5 C 0 km/h
9 12-08-2010 01:42:02 17.5 C 14.01 g/m*3 17.5 C 0 km/h
10 12-08-2010 01:54:02 17.5 C 14.01 g/m*3 17.5 C 0 km/h
11 12-08-2010 02:06:02 17.4 C 13.93 g/m*3 17.4 C 0 km/h
12 12-08-2010 02:18:02 17.2 C 13.77 g/m*3 17.2 C 0 km/h
13 12-08-2010 02:30:02 17.1 C 13.68 g/m*3 17.1 C 0 km/h
14 12-08-2010 02:42:02 17 C 13.6 g/m*3 17 C 0 km/h
15 12-08-2010 02:54:02 17.1 C 13.68 g/m*3 17.1 C 0 km/h
16 12-08-2010 03:06:02 17.1 C 13.68 g/m*3 17.1 C 0 km/h
17 12-08-2010 03:18:02 17.1 C 13.68 g/m*3 17.1 C 0 km/h
18 12-08-2010 03:30:03 16.9 C 13.52 g/m*3 16.9 C 0 km/h
19 12-08-2010 03:42:03 16.7 C 13.36 g/m*3 16.7 C 0 km/h
20 12-08-2010 03:54:03 16.5 C 13.2 g/m*3 16.5 C 0 km/h
21 12-08-2010 04:06:03 16.4 C 13.12 g/m*3 16.4 C 0 km/h
22 12-08-2010 04:18:03 16.3 C 13.04 g/m*3 16.3 C 0 km/h
23 12-08-2010 04:30:03 16.4 C 13.12 g/m*3 16.4 C 0 km/h
24 12-08-2010 04:42:03 16.6 C 13.42 g/m*3 16.6 C 0 km/h
25 12-08-2010 04:54:03 16.6 C 13.42 g/m*3 16.6 C 0 km/h
Sensor: Nr:Datum:Temp:Abs-Feuchte:Windchill:Wind:
Aussen-T/F 26 12-08-2010 05:06:03 16.7 C 13.5 g/m*3 16.7 C 0 km/h
27 12-08-2010 05:18:03 16.4 C 13.26 g/m*3 16.4 C 0 km/h
28 12-08-2010 05:30:03 16.4 C 13.12 g/m*3 16.4 C 0 km/h
29 12-08-2010 05:42:03 16.4 C 13.26 g/m*3 16.4 C 0 km/h
30 12-08-2010 05:54:03 16.5 C 13.34 g/m*3 16.5 C 0 km/h
31 12-08-2010 06:06:03 16.6 C 13.42 g/m*3 16.6 C 0 km/h
32 12-08-2010 06:18:03 16.7 C 13.5 g/m*3 16.7 C 0 km/h
33 12-08-2010 06:30:03 16.7 C 13.5 g/m*3 16.7 C 0 km/h
34 12-08-2010 06:42:03 16.8 C 13.58 g/m*3 16.8 C 0 km/h
35 12-08-2010 06:54:03 16.8 C 13.58 g/m*3 16.8 C 0 km/h
36 12-08-2010 07:06:02 16.8 C 13.58 g/m*3 16.8 C 0 km/h
37 12-08-2010 07:18:01 16.8 C 13.58 g/m*3 16.8 C 0 km/h
38 12-08-2010 07:30:01 16.9 C 13.66 g/m*3 16.9 C 0 km/h
39 12-08-2010 07:42:02 16.9 C 13.66 g/m*3 16.9 C 0 km/h
40 12-08-2010 07:54:01 16.9 C 13.52 g/m*3 16.9 C 0 km/h
41 12-08-2010 08:06:02 16.9 C 13.52 g/m*3 16.9 C 0 km/h
42 12-08-2010 08:18:01 16.6 C 13 g/m*3 16.6 C 0 km/h
43 12-08-2010 08:30:01 16.5 C 12.64 g/m*3 16.5 C 0 km/h
44 12-08-2010 08:42:02 16.4 C 12.42 g/m*3 16.4 C 0 km/h
45 12-08-2010 08:54:01 16.8 C 12.87 g/m*3 16.8 C 0 km/h
46 12-08-2010 09:06:02 17.4 C 13.34 g/m*3 17.4 C 0 km/h
47 12-08-2010 09:18:02 17.7 C 13.58 g/m*3 17.7 C 0 km/h
48 12-08-2010 09:30:02 17.8 C 13.66 g/m*3 17.8 C 0 km/h
49 12-08-2010 09:42:01 17.8 C 13.51 g/m*3 17.8 C 0 km/h
50 12-08-2010 09:54:02 17.9 C 13.13 g/m*3 17.9 C 0 km/h
Sensor: Nr:Datum:Temp:Abs-Feuchte:Windchill:Wind:
Aussen-T/F 51 12-08-2010 10:06:01 18.4 C 12.74 g/m*3 18.4 C 0 km/h
52 12-08-2010 10:18:01 18.7 C 12.49 g/m*3 18.7 C 0 km/h
53 12-08-2010 10:30:01 18.6 C 11.78 g/m*3 18.6 C 0 km/h
54 12-08-2010 10:42:01 18.6 C 11.94 g/m*3 18.6 C 0 km/h
55 12-08-2010 10:54:02 18.6 C 12.26 g/m*3 18.6 C 0 km/h
56 12-08-2010 11:06:01 18.5 C 12.5 g/m*3 18.5 C 0 km/h
57 12-08-2010 11:18:02 18.7 C 12.49 g/m*3 18.7 C 0 km/h
58 12-08-2010 11:30:02 18.5 C 12.02 g/m*3 18.5 C 0 km/h
59 12-08-2010 11:42:02 18.8 C 11.92 g/m*3 18.8 C 0 km/h
60 12-08-2010 11:54:01 18.6 C 11.94 g/m*3 18.6 C 0 km/h
61 12-08-2010 12:06:02 19.1 C 11.64 g/m*3 19.1 C 0 km/h
62 12-08-2010 12:18:01 18.7 C 11.21 g/m*3 18.7 C 0 km/h
63 12-08-2010 12:30:01 19.9 C 11.68 g/m*3 19.9 C 0 km/h
64 12-08-2010 12:42:01 19.9 C 10.82 g/m*3 19.9 C 0 km/h
65 12-08-2010 12:54:01 20.2 C 10.84 g/m*3 20.2 C 0 km/h
66 12-08-2010 13:06:02 19.8 C 10.25 g/m*3 19.8 C 0 km/h
67 12-08-2010 13:18:01 20.4 C 10.44 g/m*3 20.4 C 0 km/h
68 12-08-2010 13:30:01 21.2 C 9.45 g/m*3 21.2 C 0 km/h
69 12-08-2010 13:42:02 20.2 C 8.57 g/m*3 20.2 C 0 km/h
70 12-08-2010 13:54:01 19.7 C 9.17 g/m*3 19.7 C 0 km/h
71 12-08-2010 14:06:02 19.6 C 9.28 g/m*3 19.6 C 0 km/h
72 12-08-2010 14:18:02 20 C 9.51 g/m*3 20 C 0 km/h
73 12-08-2010 14:30:02 20.3 C 9.32 g/m*3 20.3 C 0 km/h
74 12-08-2010 14:42:01 20.8 C 8.51 g/m*3 20.8 C 0 km/h
75 12-08-2010 14:54:02 20.8 C 8.51 g/m*3 20.8 C 0 km/h
Sensor: Nr:Datum:Temp:Abs-Feuchte:Windchill:Wind:
Aussen-T/F 76 12-08-2010 15:06:01 22 C 8.73 g/m*3 22 C 0 km/h
77 12-08-2010 15:18:02 23.6 C 8.93 g/m*3 23.6 C 0 km/h
78 12-08-2010 15:30:02 23.9 C 8.44 g/m*3 23.9 C 0 km/h
79 12-08-2010 15:42:01 22.7 C 7.88 g/m*3 22.7 C 0 km/h
80 12-08-2010 15:54:02 22.9 C 7.97 g/m*3 22.9 C 0 km/h
81 12-08-2010 16:06:02 22.4 C 7.15 g/m*3 22.4 C 0 km/h
82 12-08-2010 16:18:02 22.2 C 7.26 g/m*3 22.2 C 0 km/h
83 12-08-2010 16:30:02 22.1 C 6.83 g/m*3 22.1 C 0 km/h
84 12-08-2010 16:42:02 22.9 C 7.15 g/m*3 22.9 C 0 km/h
85 12-08-2010 16:54:02 23.2 C 7.28 g/m*3 23.2 C 0 km/h
86 12-08-2010 17:06:02 24.2 C 6.6 g/m*3 24.2 C 0 km/h
87 12-08-2010 17:18:01 24.7 C 6.56 g/m*3 24.7 C 0 km/h
88 12-08-2010 17:30:01 25.9 C 6.05 g/m*3 25.9 C 0 km/h
89 12-08-2010 17:42:02 26.2 C 5.17 g/m*3 26.2 C 0 km/h
90 12-08-2010 17:54:02 26.1 C 4.9 g/m*3 26.1 C 0 km/h
91 12-08-2010 18:06:02 24.6 C 4.95 g/m*3 24.6 C 0 km/h
92 12-08-2010 18:18:01 23.6 C 5.32 g/m*3 23.6 C 0 km/h
93 12-08-2010 18:30:01 23.3 C 6.9 g/m*3 23.3 C 0 km/h
94 12-08-2010 18:42:02 22.9 C 7.97 g/m*3 22.9 C 0 km/h
95 12-08-2010 18:54:02 22.1 C 7.81 g/m*3 22.1 C 0 km/h
96 12-08-2010 19:06:02 21.5 C 8.11 g/m*3 21.5 C 0 km/h
97 12-08-2010 19:18:02 21.6 C 7.97 g/m*3 21.6 C 0 km/h
98 12-08-2010 19:30:02 22.1 C 8 g/m*3 22.1 C 0 km/h
99 12-08-2010 19:42:02 21.8 C 8.25 g/m*3 21.8 C 0 km/h
100 12-08-2010 19:54:02 21.4 C 8.81 g/m*3 21.4 C 0 km/h
Sensor: Nr:Datum:Temp:Abs-Feuchte:Windchill:Wind:
Aussen-T/F 101 12-08-2010 20:06:02 21.6 C 8.35 g/m*3 21.6 C 0 km/h
102 12-08-2010 20:18:02 20.8 C 8.51 g/m*3 20.8 C 0 km/h
103 12-08-2010 20:30:02 19.9 C 8.42 g/m*3 19.9 C 0 km/h
104 12-08-2010 20:42:02 19.2 C 8.41 g/m*3 19.2 C 0 km/h
105 12-08-2010 20:54:02 19 C 8.47 g/m*3 19 C 0 km/h
106 12-08-2010 21:06:02 19.2 C 8.74 g/m*3 19.2 C 0 km/h
107 12-08-2010 21:18:02 19.1 C 8.2 g/m*3 19.1 C 0 km/h
108 12-08-2010 21:30:03 19.2 C 7.75 g/m*3 19.2 C 0 km/h
109 12-08-2010 21:42:01 19.1 C 7.7 g/m*3 19.1 C 0 km/h
110 12-08-2010 21:54:02 19.1 C 7.54 g/m*3 19.1 C 0 km/h
111 12-08-2010 22:06:02 18.9 C 8.1 g/m*3 18.9 C 0 km/h
112 12-08-2010 22:19:02 18.5 C 8.54 g/m*3 18.5 C 0 km/h
113 12-08-2010 22:31:02 18.4 C 8.49 g/m*3 18.4 C 0 km/h
114 12-08-2010 22:43:02 18.3 C 8.76 g/m*3 18.3 C 0 km/h
115 12-08-2010 22:55:02 18.1 C 8.96 g/m*3 18.1 C 0 km/h
116 12-08-2010 23:07:02 17.7 C 8.9 g/m*3 17.7 C 0 km/h
117 12-08-2010 23:19:03 17.5 C 9.09 g/m*3 17.5 C 0 km/h
118 12-08-2010 23:31:03 17.5 C 9.24 g/m*3 17.5 C 0 km/h
119 12-08-2010 23:43:03 17.2 C 9.37 g/m*3 17.2 C 0 km/h
120 12-08-2010 23:55:03 16.8 C 9.29 g/m*3 16.8 C 0 km/h
121 13-08-2010 00:07:03 16.7 C 9.38 g/m*3 16.7 C 0 km/h
122 13-08-2010 00:19:03 16.9 C 9.49 g/m*3 16.9 C 0 km/h
123 13-08-2010 00:31:03 17 C 9.26 g/m*3 17 C 0 km/h
124 13-08-2010 00:43:03 16.9 C 9.49 g/m*3 16.9 C 0 km/h
125 13-08-2010 00:55:03 16.6 C 9.46 g/m*3 16.6 C 0 km/h
Sensor: Nr:Datum:Temp:Abs-Feuchte:Windchill:Wind:
Aussen-T/F 126 13-08-2010 01:07:03 16.4 C 9.35 g/m*3 16.4 C 0 km/h
127 13-08-2010 01:19:03 16.2 C 9.1 g/m*3 16.2 C 0 km/h
128 13-08-2010 01:31:03 16.2 C 9.24 g/m*3 16.2 C 0 km/h
129 13-08-2010 01:43:03 16 C 9.26 g/m*3 16 C 0 km/h
130 13-08-2010 01:55:03 16.1 C 9.32 g/m*3 16.1 C 0 km/h
131 13-08-2010 02:07:03 16.1 C 9.46 g/m*3 16.1 C 0 km/h
132 13-08-2010 02:19:03 15.9 C 9.62 g/m*3 15.9 C 0 km/h
133 13-08-2010 02:31:03 15.8 C 9.69 g/m*3 15.8 C 0 km/h
134 13-08-2010 02:43:03 15.8 C 9.83 g/m*3 15.8 C 0 km/h
135 13-08-2010 02:55:03 15.5 C 9.78 g/m*3 15.5 C 0 km/h
136 13-08-2010 03:07:03 15.5 C 9.78 g/m*3 15.5 C 0 km/h
137 13-08-2010 03:19:03 15.3 C 9.66 g/m*3 15.3 C 0 km/h
138 13-08-2010 03:31:03 15.3 C 9.79 g/m*3 15.3 C 0 km/h
139 13-08-2010 03:43:04 15.3 C 9.92 g/m*3 15.3 C 0 km/h
140 13-08-2010 03:55:04 15.3 C 10.06 g/m*3 15.3 C 0 km/h
141 13-08-2010 04:07:04 15.2 C 9.99 g/m*3 15.2 C 0 km/h
142 13-08-2010 04:19:04 15.1 C 9.93 g/m*3 15.1 C 0 km/h
143 13-08-2010 04:31:04 15 C 10 g/m*3 15 C 0 km/h
144 13-08-2010 04:43:04 15 C 10 g/m*3 15 C 0 km/h
145 13-08-2010 04:55:04 14.9 C 10.07 g/m*3 14.9 C 0 km/h
146 13-08-2010 05:07:04 14.8 C 10.01 g/m*3 14.8 C 0 km/h
147 13-08-2010 05:19:04 14.8 C 10.01 g/m*3 14.8 C 0 km/h
148 13-08-2010 05:31:04 14.8 C 10.01 g/m*3 14.8 C 0 km/h
149 13-08-2010 05:43:04 14.7 C 9.95 g/m*3 14.7 C 0 km/h
150 13-08-2010 05:55:04 14.7 C 9.95 g/m*3 14.7 C 0 km/h
Sensor: Nr:Datum:Temp:Abs-Feuchte:Windchill:Wind:
Aussen-T/F 151 13-08-2010 06:07:04 14.7 C 9.95 g/m*3 14.7 C 0 km/h
152 13-08-2010 06:19:04 14.7 C 10.07 g/m*3 14.7 C 0 km/h
153 13-08-2010 06:31:04 14.7 C 10.07 g/m*3 14.7 C 0 km/h
154 13-08-2010 06:43:04 14.7 C 10.07 g/m*3 14.7 C 0 km/h
155 13-08-2010 06:55:02 14.7 C 10.07 g/m*3 14.7 C 0 km/h
156 13-08-2010 07:07:02 14.8 C 10.13 g/m*3 14.8 C 0 km/h
157 13-08-2010 07:19:02 15 C 10.13 g/m*3 15 C 0 km/h
158 13-08-2010 07:31:02 15 C 10.13 g/m*3 15 C 0 km/h
159 13-08-2010 07:43:02 15.2 C 10.12 g/m*3 15.2 C 0 km/h
160 13-08-2010 07:55:02 15.1 C 10.06 g/m*3 15.1 C 0 km/h
161 13-08-2010 08:07:02 14.8 C 10.13 g/m*3 14.8 C 0 km/h
162 13-08-2010 08:19:02 14.9 C 10.2 g/m*3 14.9 C 0 km/h
163 13-08-2010 08:31:02 15.2 C 10.38 g/m*3 15.2 C 0 km/h
164 13-08-2010 08:43:02 15.3 C 10.45 g/m*3 15.3 C 0 km/h
165 13-08-2010 08:55:01 15.6 C 10.51 g/m*3 15.6 C 0 km/h
166 13-08-2010 09:07:01 15.6 C 10.51 g/m*3 15.6 C 0 km/h
167 13-08-2010 09:19:02 15.8 C 10.23 g/m*3 15.8 C 0 km/h
168 13-08-2010 09:31:01 16.1 C 10.14 g/m*3 16.1 C 0 km/h
169 13-08-2010 09:43:01 16.6 C 10.17 g/m*3 16.6 C 0 km/h
170 13-08-2010 09:55:03 17.2 C 10.4 g/m*3 17.2 C 0 km/h
171 13-08-2010 10:07:02 17.6 C 10.05 g/m*3 17.6 C 0 km/h
172 13-08-2010 10:19:03 18.3 C 10.01 g/m*3 18.3 C 0 km/h
173 13-08-2010 10:31:02 19 C 9.45 g/m*3 19 C 0 km/h
174 13-08-2010 10:43:02 19.5 C 9.4 g/m*3 19.5 C 0 km/h
175 13-08-2010 10:55:02 19.8 C 9.22 g/m*3 19.8 C 0 km/h
Sensor: Nr:Datum:Temp:Abs-Feuchte:Windchill:Wind:
Aussen-T/F 176 13-08-2010 11:07:02 20.9 C 9.11 g/m*3 20.9 C 0 km/h
177 13-08-2010 11:19:02 21.2 C 8.52 g/m*3 21.2 C 0 km/h
178 13-08-2010 11:31:03 21 C 8.24 g/m*3 21 C 0 km/h
179 13-08-2010 11:43:03 21.4 C 7.69 g/m*3 21.4 C 0 km/h
180 13-08-2010 11:55:02 21.7 C 8.39 g/m*3 21.7 C 0 km/h
181 13-08-2010 12:07:01 22.1 C 7.81 g/m*3 22.1 C 0 km/h
182 13-08-2010 12:19:02 21.7 C 7.63 g/m*3 21.7 C 0 km/h
183 13-08-2010 12:31:02 22.2 C 7.85 g/m*3 22.2 C 0 km/h
184 13-08-2010 12:43:02 22.2 C 7.85 g/m*3 22.2 C 0 km/h
185 13-08-2010 12:55:02 22.8 C 7.52 g/m*3 22.8 C 0 km/h
186 13-08-2010 13:07:02 22.5 C 7.19 g/m*3 22.5 C 0 km/h
187 13-08-2010 13:19:02 23.2 C 7.28 g/m*3 23.2 C 0 km/h
188 13-08-2010 13:31:02 23.2 C 7.48 g/m*3 23.2 C 0 km/h
189 13-08-2010 13:43:02 23.5 C 6.56 g/m*3 23.5 C 0 km/h
190 13-08-2010 13:55:01 22.6 C 6.43 g/m*3 22.6 C 0 km/h
191 13-08-2010 14:07:01 22.6 C 6.43 g/m*3 22.6 C 0 km/h
192 13-08-2010 14:19:01 23.2 C 6.44 g/m*3 23.2 C 0 km/h
193 13-08-2010 14:31:01 24.1 C 6.78 g/m*3 24.1 C 0 km/h
194 13-08-2010 14:43:01 24.4 C 6.23 g/m*3 24.4 C 0 km/h
195 13-08-2010 14:55:01 25.3 C 6.55 g/m*3 25.3 C 0 km/h
196 13-08-2010 15:07:01 24.7 C 6.11 g/m*3 24.7 C 0 km/h
197 13-08-2010 15:19:02 24.6 C 6.3 g/m*3 24.6 C 0 km/h
198 13-08-2010 15:31:01 24.9 C 6.18 g/m*3 24.9 C 0 km/h
199 13-08-2010 15:43:01 24.1 C 5.69 g/m*3 24.1 C 0 km/h
200 13-08-2010 15:55:01 23.8 C 5.81 g/m*3 23.8 C 0 km/h
Sensor: Nr:Datum:Temp:Abs-Feuchte:Windchill:Wind:
Aussen-T/F 201 13-08-2010 16:07:01 24.3 C 5.75 g/m*3 24.3 C 0 km/h
202 13-08-2010 16:19:02 24.4 C 6.45 g/m*3 24.4 C 0 km/h
203 13-08-2010 16:31:01 24.5 C 6.94 g/m*3 24.5 C 0 km/h
204 13-08-2010 16:43:01 24.1 C 6.78 g/m*3 24.1 C 0 km/h
205 13-08-2010 16:55:02 23.9 C 7.79 g/m*3 23.9 C 0 km/h
206 13-08-2010 17:07:02 24 C 6.96 g/m*3 24 C 0 km/h
207 13-08-2010 17:19:02 23.7 C 7.27 g/m*3 23.7 C 0 km/h
208 13-08-2010 17:31:02 23.7 C 7.06 g/m*3 23.7 C 0 km/h
209 13-08-2010 17:43:02 23.6 C 7.66 g/m*3 23.6 C 0 km/h
210 13-08-2010 17:55:02 23.3 C 8.15 g/m*3 23.3 C 0 km/h
211 13-08-2010 18:07:02 22.9 C 8.17 g/m*3 22.9 C 0 km/h
212 13-08-2010 18:19:01 22.8 C 8.13 g/m*3 22.8 C 0 km/h
213 13-08-2010 18:31:02 22.5 C 8.19 g/m*3 22.5 C 0 km/h
214 13-08-2010 18:43:02 22.3 C 8.29 g/m*3 22.3 C 0 km/h
215 13-08-2010 18:55:02 22 C 7.96 g/m*3 22 C 0 km/h
216 13-08-2010 19:07:02 21.7 C 8.01 g/m*3 21.7 C 0 km/h
217 13-08-2010 19:19:02 22.1 C 7.81 g/m*3 22.1 C 0 km/h
218 13-08-2010 19:31:02 21.9 C 8.1 g/m*3 21.9 C 0 km/h
219 13-08-2010 19:43:02 21.5 C 7.92 g/m*3 21.5 C 0 km/h
220 13-08-2010 19:55:02 22 C 7.57 g/m*3 22 C 0 km/h
221 13-08-2010 20:07:02 21.7 C 7.82 g/m*3 21.7 C 0 km/h
222 13-08-2010 20:19:02 20.7 C 7.92 g/m*3 20.7 C 0 km/h
223 13-08-2010 20:31:02 19.8 C 8.03 g/m*3 19.8 C 0 km/h
224 13-08-2010 20:43:02 19 C 7.99 g/m*3 19 C 0 km/h
225 13-08-2010 20:55:02 18.3 C 7.82 g/m*3 18.3 C 0 km/h
Sensor: Nr:Datum:Temp:Abs-Feuchte:Windchill:Wind:
Aussen-T/F 226 13-08-2010 21:07:02 17.9 C 7.79 g/m*3 17.9 C 0 km/h
227 13-08-2010 21:19:03 17.7 C 7.69 g/m*3 17.7 C 0 km/h
228 13-08-2010 21:31:02 17.8 C 7.89 g/m*3 17.8 C 0 km/h
229 13-08-2010 21:43:02 17.5 C 7.75 g/m*3 17.5 C 0 km/h
230 13-08-2010 21:55:03 17.4 C 8 g/m*3 17.4 C 0 km/h
231 13-08-2010 22:07:02 17.3 C 8.1 g/m*3 17.3 C 0 km/h
232 13-08-2010 22:19:02 17.1 C 8.01 g/m*3 17.1 C 0 km/h
233 13-08-2010 22:31:03 16.8 C 8.29 g/m*3 16.8 C 0 km/h
234 13-08-2010 22:43:03 16.4 C 8.37 g/m*3 16.4 C 0 km/h
235 13-08-2010 22:56:03 16 C 8.17 g/m*3 16 C 0 km/h
236 13-08-2010 23:08:03 15.8 C 8.35 g/m*3 15.8 C 0 km/h
237 13-08-2010 23:20:03 15.6 C 8.38 g/m*3 15.6 C 0 km/h
238 13-08-2010 23:32:03 15.5 C 8.86 g/m*3 15.5 C 0 km/h
239 13-08-2010 23:44:03 15.2 C 8.83 g/m*3 15.2 C 0 km/h
240 13-08-2010 23:56:03 15.1 C 8.77 g/m*3 15.1 C 0 km/h
241 14-08-2010 00:08:03 15 C 8.72 g/m*3 15 C 0 km/h
242 14-08-2010 00:20:03 14.9 C 8.92 g/m*3 14.9 C 0 km/h
243 14-08-2010 00:32:04 14.6 C 8.88 g/m*3 14.6 C 0 km/h
244 14-08-2010 00:44:04 14.5 C 8.95 g/m*3 14.5 C 0 km/h
245 14-08-2010 00:56:04 14.5 C 9.08 g/m*3 14.5 C 0 km/h
246 14-08-2010 01:08:04 14.3 C 9.09 g/m*3 14.3 C 0 km/h
247 14-08-2010 01:20:04 14.1 C 9.1 g/m*3 14.1 C 0 km/h
248 14-08-2010 01:32:04 13.8 C 9.06 g/m*3 13.8 C 0 km/h
249 14-08-2010 01:44:04 13.9 C 9.11 g/m*3 13.9 C 0 km/h
250 14-08-2010 01:56:04 13.8 C 9.17 g/m*3 13.8 C 0 km/h
Sensor: Nr:Datum:Temp:Abs-Feuchte:Windchill:Wind:
Aussen-T/F 251 14-08-2010 02:08:04 13.6 C 9.06 g/m*3 13.6 C 0 km/h
252 14-08-2010 02:20:04 13.4 C 8.95 g/m*3 13.4 C 0 km/h
253 14-08-2010 02:32:04 13.3 C 9.01 g/m*3 13.3 C 0 km/h
254 14-08-2010 02:44:04 13.2 C 8.96 g/m*3 13.2 C 0 km/h
255 14-08-2010 02:56:04 13.1 C 9.01 g/m*3 13.1 C 0 km/h
256 14-08-2010 03:08:04 12.9 C 9.02 g/m*3 12.9 C 0 km/h
257 14-08-2010 03:20:04 12.7 C 8.91 g/m*3 12.7 C 0 km/h
258 14-08-2010 03:32:04 12.6 C 8.85 g/m*3 12.6 C 0 km/h
259 14-08-2010 03:44:04 12.5 C 8.91 g/m*3 12.5 C 0 km/h
260 14-08-2010 03:56:04 12.3 C 8.69 g/m*3 12.3 C 0 km/h
261 14-08-2010 04:08:04 12.2 C 8.74 g/m*3 12.2 C 0 km/h
262 14-08-2010 04:20:04 12.1 C 8.69 g/m*3 12.1 C 0 km/h
263 14-08-2010 04:32:05 12.1 C 8.69 g/m*3 12.1 C 0 km/h
264 14-08-2010 04:44:05 12 C 8.74 g/m*3 12 C 0 km/h
265 14-08-2010 04:56:05 11.9 C 8.9 g/m*3 11.9 C 0 km/h
266 14-08-2010 05:08:05 11.8 C 8.84 g/m*3 11.8 C 0 km/h
267 14-08-2010 05:20:05 11.7 C 8.79 g/m*3 11.7 C 0 km/h
268 14-08-2010 05:32:05 11.6 C 8.73 g/m*3 11.6 C 0 km/h
269 14-08-2010 05:44:05 11.5 C 8.68 g/m*3 11.5 C 0 km/h
270 14-08-2010 05:56:05 11.5 C 8.78 g/m*3 11.5 C 0 km/h
271 14-08-2010 06:08:05 11.4 C 8.83 g/m*3 11.4 C 0 km/h
272 14-08-2010 06:20:05 11.1 C 8.66 g/m*3 11.1 C 0 km/h
273 14-08-2010 06:32:05 11.1 C 8.76 g/m*3 11.1 C 0 km/h
274 14-08-2010 06:44:05 11 C 8.71 g/m*3 11 C 0 km/h
275 14-08-2010 06:56:05 11 C 8.71 g/m*3 11 C 0 km/h
Sensor: Nr:Datum:Temp:Abs-Feuchte:Windchill:Wind:
Aussen-T/F 276 14-08-2010 07:08:04 11.1 C 8.76 g/m*3 11.1 C 0 km/h
277 14-08-2010 07:20:03 11.1 C 8.76 g/m*3 11.1 C 0 km/h
278 14-08-2010 07:32:04 11.3 C 8.87 g/m*3 11.3 C 0 km/h
279 14-08-2010 07:44:04 11.4 C 9.03 g/m*3 11.4 C 0 km/h
280 14-08-2010 07:56:02 11.5 C 9.09 g/m*3 11.5 C 0 km/h
281 14-08-2010 08:08:02 11.8 C 9.26 g/m*3 11.8 C 0 km/h
282 14-08-2010 08:20:02 12.1 C 9.33 g/m*3 12.1 C 0 km/h
283 14-08-2010 08:32:02 12.3 C 9.45 g/m*3 12.3 C 0 km/h
284 14-08-2010 08:44:02 12.6 C 9.51 g/m*3 12.6 C 0 km/h
285 14-08-2010 08:56:02 12.8 C 9.52 g/m*3 12.8 C 0 km/h
286 14-08-2010 09:08:02 13.2 C 9.53 g/m*3 13.2 C 0 km/h
287 14-08-2010 09:20:02 13.8 C 9.89 g/m*3 13.8 C 0 km/h
288 14-08-2010 09:32:02 14.4 C 10.01 g/m*3 14.4 C 0 km/h
289 14-08-2010 09:44:02 15 C 10 g/m*3 15 C 0 km/h
290 14-08-2010 09:56:01 15.6 C 10.24 g/m*3 15.6 C 0 km/h
291 14-08-2010 10:08:01 16.2 C 10.2 g/m*3 16.2 C 0 km/h
292 14-08-2010 10:20:02 16.9 C 10.36 g/m*3 16.9 C 0 km/h
293 14-08-2010 10:32:01 17.7 C 10.41 g/m*3 17.7 C 0 km/h
294 14-08-2010 10:44:01 18.3 C 10.48 g/m*3 18.3 C 0 km/h
295 14-08-2010 10:56:01 19 C 10.43 g/m*3 19 C 0 km/h
296 14-08-2010 11:08:01 19.5 C 10.57 g/m*3 19.5 C 0 km/h
297 14-08-2010 11:20:02 20 C 10.37 g/m*3 20 C 0 km/h
298 14-08-2010 11:32:01 20.6 C 10.38 g/m*3 20.6 C 0 km/h
299 14-08-2010 11:44:01 21.4 C 10.31 g/m*3 21.4 C 0 km/h
300 14-08-2010 11:56:02 21.9 C 10.03 g/m*3 21.9 C 0 km/h
Sensor: Nr:Datum:Temp:Abs-Feuchte:Windchill:Wind:
Aussen-T/F 301 14-08-2010 12:08:02 22.2 C 9.42 g/m*3 22.2 C 0 km/h
302 14-08-2010 12:20:02 22.7 C 9.9 g/m*3 22.7 C 0 km/h
303 14-08-2010 12:32:03 23.1 C 9.3 g/m*3 23.1 C 0 km/h
304 14-08-2010 12:44:03 23.2 C 8.94 g/m*3 23.2 C 0 km/h
305 14-08-2010 12:56:02 23.6 C 8.29 g/m*3 23.6 C 0 km/h
306 14-08-2010 13:08:01 24.5 C 8.06 g/m*3 24.5 C 0 km/h
307 14-08-2010 13:20:02 25.7 C 7.66 g/m*3 25.7 C 0 km/h
308 14-08-2010 13:32:02 26.4 C 7.47 g/m*3 26.4 C 0 km/h
309 14-08-2010 13:44:02 27.1 C 6.73 g/m*3 27.1 C 0 km/h
310 14-08-2010 13:56:02 27.5 C 6.88 g/m*3 27.5 C 0 km/h
311 14-08-2010 14:08:01 27.5 C 6.88 g/m*3 27.5 C 0 km/h
312 14-08-2010 14:20:02 28.2 C 7.42 g/m*3 28.2 C 0 km/h
313 14-08-2010 14:32:01 27.9 C 6.76 g/m*3 27.9 C 0 km/h
314 14-08-2010 14:44:01 27.4 C 6.84 g/m*3 27.4 C 0 km/h
315 14-08-2010 14:56:02 27.1 C 6.99 g/m*3 27.1 C 0 km/h
316 14-08-2010 15:08:02 27.7 C 6.95 g/m*3 27.7 C 0 km/h
317 14-08-2010 15:20:02 27.7 C 6.95 g/m*3 27.7 C 0 km/h
318 14-08-2010 15:32:03 27.5 C 6.61 g/m*3 27.5 C 0 km/h
319 14-08-2010 15:44:03 28.1 C 6.84 g/m*3 28.1 C 0 km/h
320 14-08-2010 15:56:02 29.2 C 6.1 g/m*3 29.2 C 0 km/h
321 14-08-2010 16:08:01 29.6 C 6.53 g/m*3 29.6 C 0 km/h
322 14-08-2010 16:20:02 30 C 6.67 g/m*3 30 C 0 km/h
323 14-08-2010 16:32:02 30 C 6.37 g/m*3 30 C 0 km/h
324 14-08-2010 16:44:02 30.3 C 6.47 g/m*3 30.3 C 0 km/h
325 14-08-2010 16:56:02 30.6 C 6.26 g/m*3 30.6 C 0 km/h
Sensor: Nr:Datum:Temp:Abs-Feuchte:Windchill:Wind:
Aussen-T/F 326 14-08-2010 17:08:02 30.7 C 6.3 g/m*3 30.7 C 0 km/h
327 14-08-2010 17:20:02 30.6 C 6.26 g/m*3 30.6 C 0 km/h
328 14-08-2010 17:32:02 30.9 C 6.37 g/m*3 30.9 C 0 km/h
329 14-08-2010 17:44:02 31 C 6.4 g/m*3 31 C 0 km/h
330 14-08-2010 17:56:01 31.2 C 6.47 g/m*3 31.2 C 0 km/h
331 14-08-2010 18:08:01 31.4 C 6.54 g/m*3 31.4 C 0 km/h
332 14-08-2010 18:20:01 31.5 C 6.57 g/m*3 31.5 C 0 km/h
333 14-08-2010 18:32:01 31.3 C 6.5 g/m*3 31.3 C 0 km/h
334 14-08-2010 18:44:01 31 C 6.4 g/m*3 31 C 0 km/h
335 14-08-2010 18:56:01 30.9 C 6.37 g/m*3 30.9 C 0 km/h
336 14-08-2010 19:08:01 29.6 C 7.72 g/m*3 29.6 C 0 km/h
337 14-08-2010 19:20:02 28.2 C 7.15 g/m*3 28.2 C 0 km/h
338 14-08-2010 19:32:01 27.4 C 7.37 g/m*3 27.4 C 0 km/h
339 14-08-2010 19:44:01 27.2 C 7.55 g/m*3 27.2 C 0 km/h
340 14-08-2010 19:56:03 26.9 C 7.93 g/m*3 26.9 C 0 km/h
341 14-08-2010 20:08:02 26.6 C 8.05 g/m*3 26.6 C 0 km/h
342 14-08-2010 20:20:02 25.8 C 8.19 g/m*3 25.8 C 0 km/h
343 14-08-2010 20:32:02 24.7 C 8.15 g/m*3 24.7 C 0 km/h
344 14-08-2010 20:44:02 24 C 8.05 g/m*3 24 C 0 km/h
345 14-08-2010 20:56:02 23.2 C 8.32 g/m*3 23.2 C 0 km/h
346 14-08-2010 21:08:02 22.7 C 8.49 g/m*3 22.7 C 0 km/h
347 14-08-2010 21:20:02 22.5 C 8.59 g/m*3 22.5 C 0 km/h
348 14-08-2010 21:32:02 22.1 C 8.78 g/m*3 22.1 C 0 km/h
349 14-08-2010 21:44:02 21.8 C 8.83 g/m*3 21.8 C 0 km/h
350 14-08-2010 21:56:02 21.6 C 8.91 g/m*3 21.6 C 0 km/h
Sensor: Nr:Datum:Temp:Abs-Feuchte:Windchill:Wind:
Aussen-T/F 351 14-08-2010 22:08:02 21.6 C 9.1 g/m*3 21.6 C 0 km/h
352 14-08-2010 22:20:01 21.5 C 9.05 g/m*3 21.5 C 0 km/h
353 14-08-2010 22:32:02 21.2 C 9.27 g/m*3 21.2 C 0 km/h
354 14-08-2010 22:44:02 21.1 C 9.21 g/m*3 21.1 C 0 km/h
355 14-08-2010 22:56:02 20.8 C 9.05 g/m*3 20.8 C 0 km/h
356 14-08-2010 23:08:02 20.7 C 9.36 g/m*3 20.7 C 0 km/h
357 14-08-2010 23:21:03 20.6 C 9.31 g/m*3 20.6 C 0 km/h
358 14-08-2010 23:33:03 20.3 C 9.15 g/m*3 20.3 C 0 km/h
359 14-08-2010 23:45:03 20.2 C 8.92 g/m*3 20.2 C 0 km/h
360 14-08-2010 23:57:03 20 C 8.99 g/m*3 20 C 0 km/h
361 15-08-2010 00:09:03 20 C 8.81 g/m*3 20 C 0 km/h
362 15-08-2010 00:21:03 19.8 C 8.88 g/m*3 19.8 C 0 km/h
363 15-08-2010 00:33:03 19.8 C 8.88 g/m*3 19.8 C 0 km/h
364 15-08-2010 00:45:03 19.6 C 8.78 g/m*3 19.6 C 0 km/h
365 15-08-2010 00:57:03 19.5 C 8.73 g/m*3 19.5 C 0 km/h
366 15-08-2010 01:09:03 19.5 C 8.89 g/m*3 19.5 C 0 km/h
367 15-08-2010 01:21:03 19.5 C 8.56 g/m*3 19.5 C 0 km/h
368 15-08-2010 01:33:03 19.4 C 8.84 g/m*3 19.4 C 0 km/h
369 15-08-2010 01:45:03 19.3 C 8.63 g/m*3 19.3 C 0 km/h
370 15-08-2010 01:57:03 19.2 C 8.74 g/m*3 19.2 C 0 km/h
371 15-08-2010 02:09:03 19.1 C 8.69 g/m*3 19.1 C 0 km/h
372 15-08-2010 02:21:03 19.1 C 9.02 g/m*3 19.1 C 0 km/h
373 15-08-2010 02:33:03 19 C 8.96 g/m*3 19 C 0 km/h
374 15-08-2010 02:45:03 18.9 C 9.07 g/m*3 18.9 C 0 km/h
375 15-08-2010 02:57:03 18.8 C 9.18 g/m*3 18.8 C 0 km/h
Sensor: Nr:Datum:Temp:Abs-Feuchte:Windchill:Wind:
Aussen-T/F 376 15-08-2010 03:09:03 18.8 C 9.34 g/m*3 18.8 C 0 km/h
377 15-08-2010 03:21:03 18.7 C 9.29 g/m*3 18.7 C 0 km/h
378 15-08-2010 03:33:04 18.6 C 9.23 g/m*3 18.6 C 0 km/h
379 15-08-2010 03:45:04 18.5 C 9.33 g/m*3 18.5 C 0 km/h
380 15-08-2010 03:57:04 18.4 C 9.28 g/m*3 18.4 C 0 km/h
381 15-08-2010 04:09:04 18.2 C 9.17 g/m*3 18.2 C 0 km/h
382 15-08-2010 04:21:04 18.2 C 9.33 g/m*3 18.2 C 0 km/h
383 15-08-2010 04:33:04 18.1 C 9.12 g/m*3 18.1 C 0 km/h
384 15-08-2010 04:45:04 18.1 C 9.12 g/m*3 18.1 C 0 km/h
385 15-08-2010 04:57:04 18.1 C 8.96 g/m*3 18.1 C 0 km/h
386 15-08-2010 05:09:04 18.1 C 8.81 g/m*3 18.1 C 0 km/h
387 15-08-2010 05:21:04 18.1 C 8.96 g/m*3 18.1 C 0 km/h
388 15-08-2010 05:33:04 18.1 C 8.81 g/m*3 18.1 C 0 km/h
389 15-08-2010 05:45:04 18 C 8.91 g/m*3 18 C 0 km/h
390 15-08-2010 05:57:04 18 C 8.91 g/m*3 18 C 0 km/h
391 15-08-2010 06:09:04 17.8 C 9.11 g/m*3 17.8 C 0 km/h
392 15-08-2010 06:21:04 17.9 C 9.01 g/m*3 17.9 C 0 km/h
393 15-08-2010 06:33:04 18 C 9.06 g/m*3 18 C 0 km/h
394 15-08-2010 06:45:04 17.9 C 9.01 g/m*3 17.9 C 0 km/h
395 15-08-2010 06:57:04 17.9 C 9.01 g/m*3 17.9 C 0 km/h
396 15-08-2010 07:09:04 18 C 8.91 g/m*3 18 C 0 km/h
397 15-08-2010 07:21:04 17.9 C 9.16 g/m*3 17.9 C 0 km/h
398 15-08-2010 07:33:04 17.2 C 9.52 g/m*3 17.2 C 0 km/h
399 15-08-2010 07:45:05 16.4 C 10.05 g/m*3 16.4 C 0 km/h
400 15-08-2010 07:57:05 16 C 10.63 g/m*3 16 C 0 km/h
Sensor: Nr:Datum:Temp:Abs-Feuchte:Windchill:Wind:
Aussen-T/F 401 15-08-2010 08:09:05 15.4 C 11.04 g/m*3 15.4 C 0 km/h
402 15-08-2010 08:21:05 15.1 C 11.22 g/m*3 15.1 C 0 km/h
403 15-08-2010 08:33:03 15.1 C 11.48 g/m*3 15.1 C 0 km/h
404 15-08-2010 08:45:02 15.4 C 11.82 g/m*3 15.4 C 0 km/h
405 15-08-2010 08:57:02 15.2 C 11.81 g/m*3 15.2 C 0 km/h
406 15-08-2010 09:09:03 15.1 C 11.74 g/m*3 15.1 C 0 km/h
407 15-08-2010 09:21:02 15.1 C 11.87 g/m*3 15.1 C 0 km/h
408 15-08-2010 09:33:02 15.2 C 12.07 g/m*3 15.2 C 0 km/h
409 15-08-2010 09:45:01 15.3 C 12.14 g/m*3 15.3 C 0 km/h
410 15-08-2010 09:57:01 15.3 C 12.14 g/m*3 15.3 C 0 km/h
411 15-08-2010 10:09:02 15.5 C 12.43 g/m*3 15.5 C 0 km/h
412 15-08-2010 10:21:01 15.4 C 12.35 g/m*3 15.4 C 0 km/h
413 15-08-2010 10:33:01 15.4 C 12.35 g/m*3 15.4 C 0 km/h
414 15-08-2010 10:45:01 15.5 C 12.43 g/m*3 15.5 C 0 km/h
415 15-08-2010 10:57:01 15.6 C 12.63 g/m*3 15.6 C 0 km/h
416 15-08-2010 11:09:01 15.7 C 12.71 g/m*3 15.7 C 0 km/h
417 15-08-2010 11:21:02 15.8 C 12.79 g/m*3 15.8 C 0 km/h
418 15-08-2010 11:33:01 15.8 C 12.79 g/m*3 15.8 C 0 km/h
419 15-08-2010 11:45:03 15.9 C 12.87 g/m*3 15.9 C 0 km/h
420 15-08-2010 11:57:03 15.9 C 12.87 g/m*3 15.9 C 0 km/h
421 15-08-2010 12:09:02 15.8 C 12.79 g/m*3 15.8 C 0 km/h
422 15-08-2010 12:21:02 16 C 12.94 g/m*3 16 C 0 km/h
423 15-08-2010 12:33:02 16.2 C 13.1 g/m*3 16.2 C 0 km/h
424 15-08-2010 12:45:02 16.1 C 13.02 g/m*3 16.1 C 0 km/h
425 15-08-2010 12:57:02 16.1 C 13.02 g/m*3 16.1 C 0 km/h
Sensor: Nr:Datum:Temp:Abs-Feuchte:Windchill:Wind:
Aussen-T/F 426 15-08-2010 13:09:02 16.1 C 13.02 g/m*3 16.1 C 0 km/h
427 15-08-2010 13:21:02 16.1 C 13.02 g/m*3 16.1 C 0 km/h
428 15-08-2010 13:33:02 16.2 C 13.1 g/m*3 16.2 C 0 km/h
429 15-08-2010 13:45:01 16.2 C 13.1 g/m*3 16.2 C 0 km/h
430 15-08-2010 13:57:01 16.1 C 13.02 g/m*3 16.1 C 0 km/h
431 15-08-2010 14:09:02 16.2 C 13.1 g/m*3 16.2 C 0 km/h
432 15-08-2010 14:21:02 16.3 C 13.18 g/m*3 16.3 C 0 km/h
433 15-08-2010 14:33:02 16.6 C 13.42 g/m*3 16.6 C 0 km/h
434 15-08-2010 14:45:02 16.6 C 13.42 g/m*3 16.6 C 0 km/h
435 15-08-2010 14:57:02 16.5 C 13.34 g/m*3 16.5 C 0 km/h
436 15-08-2010 15:09:02 16.4 C 13.26 g/m*3 16.4 C 0 km/h
437 15-08-2010 15:21:02 16.4 C 13.26 g/m*3 16.4 C 0 km/h
438 15-08-2010 15:33:01 16.4 C 13.26 g/m*3 16.4 C 0 km/h
439 15-08-2010 15:45:02 16.4 C 13.26 g/m*3 16.4 C 0 km/h
440 15-08-2010 15:57:02 16.4 C 13.26 g/m*3 16.4 C 0 km/h
441 15-08-2010 16:09:04 16.5 C 13.34 g/m*3 16.5 C 0 km/h
442 15-08-2010 16:21:02 16.5 C 13.34 g/m*3 16.5 C 0 km/h
443 15-08-2010 16:33:02 16.5 C 13.34 g/m*3 16.5 C 0 km/h
444 15-08-2010 16:45:03 16.4 C 13.26 g/m*3 16.4 C 0 km/h
445 15-08-2010 16:57:03 16.5 C 13.34 g/m*3 16.5 C 0 km/h
446 15-08-2010 17:09:03 16.6 C 13.42 g/m*3 16.6 C 0 km/h
447 15-08-2010 17:21:02 16.7 C 13.5 g/m*3 16.7 C 0 km/h
448 15-08-2010 17:33:02 16.7 C 13.5 g/m*3 16.7 C 0 km/h
449 15-08-2010 17:45:02 16.7 C 13.5 g/m*3 16.7 C 0 km/h
450 15-08-2010 17:57:02 16.7 C 13.5 g/m*3 16.7 C 0 km/h
Sensor: Nr:Datum:Temp:Abs-Feuchte:Windchill:Wind:
Aussen-T/F 451 15-08-2010 18:09:02 16.6 C 13.42 g/m*3 16.6 C 0 km/h
452 15-08-2010 18:21:02 16.6 C 13.42 g/m*3 16.6 C 0 km/h
453 15-08-2010 18:33:02 16.6 C 13.42 g/m*3 16.6 C 0 km/h
454 15-08-2010 18:45:02 16.6 C 13.42 g/m*3 16.6 C 0 km/h
455 15-08-2010 18:57:03 16.6 C 13.42 g/m*3 16.6 C 0 km/h
456 15-08-2010 19:09:01 16.6 C 13.42 g/m*3 16.6 C 0 km/h
457 15-08-2010 19:21:01 16.6 C 13.42 g/m*3 16.6 C 0 km/h
458 15-08-2010 19:33:02 16.6 C 13.42 g/m*3 16.6 C 0 km/h
459 15-08-2010 19:45:02 16.6 C 13.42 g/m*3 16.6 C 0 km/h
460 15-08-2010 19:57:02 16.6 C 13.42 g/m*3 16.6 C 0 km/h
461 15-08-2010 20:09:02 16.5 C 13.34 g/m*3 16.5 C 0 km/h
462 15-08-2010 20:21:02 16.4 C 13.26 g/m*3 16.4 C 0 km/h
463 15-08-2010 20:33:02 16.4 C 13.26 g/m*3 16.4 C 0 km/h
464 15-08-2010 20:45:02 16.3 C 13.18 g/m*3 16.3 C 0 km/h
465 15-08-2010 20:57:02 16.3 C 13.18 g/m*3 16.3 C 0 km/h
466 15-08-2010 21:09:02 16.3 C 13.18 g/m*3 16.3 C 0 km/h
467 15-08-2010 21:21:02 16.3 C 13.18 g/m*3 16.3 C 0 km/h
468 15-08-2010 21:33:02 16.2 C 13.1 g/m*3 16.2 C 0 km/h
469 15-08-2010 21:45:02 16.2 C 13.1 g/m*3 16.2 C 0 km/h
470 15-08-2010 21:57:02 16.2 C 13.1 g/m*3 16.2 C 0 km/h
471 15-08-2010 22:09:02 16.1 C 13.02 g/m*3 16.1 C 0 km/h
472 15-08-2010 22:21:02 16.1 C 13.02 g/m*3 16.1 C 0 km/h
473 15-08-2010 22:33:02 16.2 C 13.1 g/m*3 16.2 C 0 km/h
474 15-08-2010 22:45:02 16.2 C 13.1 g/m*3 16.2 C 0 km/h
475 15-08-2010 22:57:02 16.1 C 13.02 g/m*3 16.1 C 0 km/h
Sensor: Nr:Datum:Temp:Abs-Feuchte:Windchill:Wind:
Aussen-T/F 476 15-08-2010 23:09:02 16 C 12.94 g/m*3 16 C 0 km/h
477 15-08-2010 23:21:02 15.9 C 12.87 g/m*3 15.9 C 0 km/h
478 15-08-2010 23:33:02 15.4 C 12.48 g/m*3 15.4 C 0 km/h
479 15-08-2010 23:45:02 15.2 C 12.33 g/m*3 15.2 C 0 km/h
480 15-08-2010 23:57:02 15 C 12.18 g/m*3 15 C 0 km/h
481 16-08-2010 00:09:02 15 C 12.18 g/m*3 15 C 0 km/h
482 16-08-2010 00:21:01 15 C 12.18 g/m*3 15 C 0 km/h
483 16-08-2010 00:33:02 14.9 C 12.11 g/m*3 14.9 C 0 km/h
484 16-08-2010 00:45:02 14.8 C 12.03 g/m*3 14.8 C 0 km/h
485 16-08-2010 00:57:02 14.8 C 12.03 g/m*3 14.8 C 0 km/h
486 16-08-2010 01:09:02 14.8 C 12.03 g/m*3 14.8 C 0 km/h
487 16-08-2010 01:21:02 14.7 C 11.96 g/m*3 14.7 C 0 km/h
488 16-08-2010 01:33:02 14.7 C 11.83 g/m*3 14.7 C 0 km/h
489 16-08-2010 01:45:02 14.7 C 11.83 g/m*3 14.7 C 0 km/h
490 16-08-2010 01:57:02 14.7 C 11.71 g/m*3 14.7 C 0 km/h
491 16-08-2010 02:09:02 14.6 C 11.64 g/m*3 14.6 C 0 km/h
492 16-08-2010 02:21:02 14.6 C 11.64 g/m*3 14.6 C 0 km/h
493 16-08-2010 02:33:02 14.6 C 11.64 g/m*3 14.6 C 0 km/h
494 16-08-2010 02:46:03 14.6 C 11.51 g/m*3 14.6 C 0 km/h
495 16-08-2010 02:58:03 14.6 C 11.64 g/m*3 14.6 C 0 km/h
496 16-08-2010 03:10:04 14.6 C 11.64 g/m*3 14.6 C 0 km/h
497 16-08-2010 03:22:04 14.6 C 11.64 g/m*3 14.6 C 0 km/h
498 16-08-2010 03:34:02 14.6 C 11.64 g/m*3 14.6 C 0 km/h
499 16-08-2010 03:46:02 14.6 C 11.64 g/m*3 14.6 C 0 km/h
500 16-08-2010 03:58:02 14.6 C 11.64 g/m*3 14.6 C 0 km/h
Sensor: Nr:Datum:Temp:Abs-Feuchte:Windchill:Wind:
Aussen-T/F 501 16-08-2010 04:10:02 14.5 C 11.44 g/m*3 14.5 C 0 km/h
502 16-08-2010 04:22:02 14.5 C 11.32 g/m*3 14.5 C 0 km/h
503 16-08-2010 04:34:02 14.5 C 11.32 g/m*3 14.5 C 0 km/h
504 16-08-2010 04:46:02 14.5 C 11.32 g/m*3 14.5 C 0 km/h
505 16-08-2010 04:58:02 14.5 C 11.32 g/m*3 14.5 C 0 km/h
506 16-08-2010 05:10:02 14.5 C 11.32 g/m*3 14.5 C 0 km/h
507 16-08-2010 05:22:02 14.5 C 11.32 g/m*3 14.5 C 0 km/h
508 16-08-2010 05:34:02 14.5 C 11.44 g/m*3 14.5 C 0 km/h
509 16-08-2010 05:46:01 14.5 C 11.44 g/m*3 14.5 C 0 km/h
510 16-08-2010 05:58:01 14.5 C 11.44 g/m*3 14.5 C 0 km/h
511 16-08-2010 06:10:02 14.5 C 11.44 g/m*3 14.5 C 0 km/h
512 16-08-2010 06:22:02 14.5 C 11.32 g/m*3 14.5 C 0 km/h
513 16-08-2010 06:34:02 14.5 C 11.32 g/m*3 14.5 C 0 km/h
514 16-08-2010 06:46:02 14.6 C 11.39 g/m*3 14.6 C 0 km/h
515 16-08-2010 06:58:02 14.6 C 11.39 g/m*3 14.6 C 0 km/h
516 16-08-2010 07:10:02 14.6 C 11.39 g/m*3 14.6 C 0 km/h
517 16-08-2010 07:22:56 14.8 C 11.53 g/m*3 14.8 C 0 km/h
518 16-08-2010 07:34:02 14.8 C 11.53 g/m*3 14.8 C 0 km/h
519 16-08-2010 07:46:02 14.8 C 11.4 g/m*3 14.8 C 0 km/h
520 16-08-2010 07:58:02 15.2 C 11.42 g/m*3 15.2 C 0 km/h
521 16-08-2010 08:10:02 15.6 C 11.57 g/m*3 15.6 C 0 km/h
522 16-08-2010 08:22:01 15.8 C 11.58 g/m*3 15.8 C 0 km/h
523 16-08-2010 08:34:02 15.9 C 11.38 g/m*3 15.9 C 0 km/h
524 16-08-2010 08:46:01 16 C 11.31 g/m*3 16 C 0 km/h
525 16-08-2010 08:58:01 16.3 C 11.38 g/m*3 16.3 C 0 km/h
Sensor: Nr:Datum:Temp:Abs-Feuchte:Windchill:Wind:
Aussen-T/F 526 16-08-2010 09:10:02 17.1 C 11.5 g/m*3 17.1 C 0 km/h
527 16-08-2010 09:22:02 17.4 C 11.12 g/m*3 17.4 C 0 km/h
528 16-08-2010 09:34:01 17.4 C 10.82 g/m*3 17.4 C 0 km/h
529 16-08-2010 09:46:01 17.7 C 11.01 g/m*3 17.7 C 0 km/h
530 16-08-2010 09:58:01 17.4 C 10.97 g/m*3 17.4 C 0 km/h
531 16-08-2010 10:10:01 17.4 C 10.97 g/m*3 17.4 C 0 km/h
532 16-08-2010 10:22:02 17.3 C 10.9 g/m*3 17.3 C 0 km/h
533 16-08-2010 10:34:01 17.1 C 10.63 g/m*3 17.1 C 0 km/h
534 16-08-2010 10:46:02 17.2 C 10.84 g/m*3 17.2 C 0 km/h
535 16-08-2010 10:58:02 17 C 10.85 g/m*3 17 C 0 km/h
536 16-08-2010 11:10:01 17.3 C 11.05 g/m*3 17.3 C 0 km/h
537 16-08-2010 11:22:01 17.7 C 11.47 g/m*3 17.7 C 0 km/h
538 16-08-2010 11:42:02 18.1 C 10.97 g/m*3 18.1 C 0 km/h
539 16-08-2010 11:54:02 17.7 C 10.86 g/m*3 17.7 C 0 km/h
540 16-08-2010 12:06:03 17.5 C 11.33 g/m*3 17.5 C 0 km/h
541 16-08-2010 12:18:02 17.8 C 11.84 g/m*3 17.8 C 0 km/h
542 16-08-2010 12:30:02 17.6 C 11.4 g/m*3 17.6 C 0 km/h
543 16-08-2010 12:42:02 17.8 C 11.54 g/m*3 17.8 C 0 km/h
544 16-08-2010 12:54:02 18.1 C 11.12 g/m*3 18.1 C 0 km/h
545 16-08-2010 13:06:02 18.1 C 10.97 g/m*3 18.1 C 0 km/h
546 16-08-2010 13:18:02 18.2 C 10.72 g/m*3 18.2 C 0 km/h
547 16-08-2010 13:30:02 18.3 C 10.63 g/m*3 18.3 C 0 km/h
548 16-08-2010 13:42:02 18.5 C 10.28 g/m*3 18.5 C 0 km/h
549 16-08-2010 13:54:02 18.8 C 10.31 g/m*3 18.8 C 0 km/h
550 16-08-2010 14:06:01 19.5 C 10.41 g/m*3 19.5 C 0 km/h
Sensor: Nr:Datum:Temp:Abs-Feuchte:Windchill:Wind:
Aussen-T/F 551 16-08-2010 14:18:02 19.6 C 9.96 g/m*3 19.6 C 0 km/h
552 16-08-2010 14:30:03 20 C 9.51 g/m*3 20 C 0 km/h
553 16-08-2010 14:42:01 20.5 C 9.96 g/m*3 20.5 C 0 km/h
554 16-08-2010 14:54:02 19.8 C 9.57 g/m*3 19.8 C 0 km/h
555 16-08-2010 15:06:02 19.7 C 9.34 g/m*3 19.7 C 0 km/h
556 16-08-2010 15:18:02 19.7 C 9.51 g/m*3 19.7 C 0 km/h
557 16-08-2010 15:30:02 19.7 C 9.34 g/m*3 19.7 C 0 km/h
558 16-08-2010 15:42:03 19.8 C 9.57 g/m*3 19.8 C 0 km/h
559 16-08-2010 15:54:02 19.7 C 9.34 g/m*3 19.7 C 0 km/h
560 16-08-2010 16:06:02 20 C 9.68 g/m*3 20 C 0 km/h
561 16-08-2010 16:18:02 19.7 C 9.68 g/m*3 19.7 C 0 km/h
562 16-08-2010 16:30:02 19.6 C 9.79 g/m*3 19.6 C 0 km/h
563 16-08-2010 16:42:02 19.5 C 9.73 g/m*3 19.5 C 0 km/h
564 16-08-2010 16:54:02 20 C 9.85 g/m*3 20 C 0 km/h
565 16-08-2010 17:07:03 20 C 9.85 g/m*3 20 C 0 km/h
566 16-08-2010 17:19:02 19.9 C 9.79 g/m*3 19.9 C 0 km/h
567 16-08-2010 17:31:02 19.8 C 9.74 g/m*3 19.8 C 0 km/h
568 16-08-2010 17:43:02 19.8 C 9.74 g/m*3 19.8 C 0 km/h
569 16-08-2010 17:55:01 20.3 C 9.85 g/m*3 20.3 C 0 km/h
570 16-08-2010 18:07:02 20.2 C 9.44 g/m*3 20.2 C 0 km/h
571 16-08-2010 18:19:01 20 C 9.51 g/m*3 20 C 0 km/h
572 16-08-2010 18:31:01 19.8 C 9.74 g/m*3 19.8 C 0 km/h
573 16-08-2010 18:43:01 19.5 C 9.73 g/m*3 19.5 C 0 km/h
574 16-08-2010 18:55:01 19.3 C 9.79 g/m*3 19.3 C 0 km/h
575 16-08-2010 19:07:02 18.9 C 9.88 g/m*3 18.9 C 0 km/h
Sensor: Nr:Datum:Temp:Abs-Feuchte:Windchill:Wind:
Aussen-T/F 576 16-08-2010 19:19:02 18.8 C 9.99 g/m*3 18.8 C 0 km/h
577 16-08-2010 19:31:01 18.7 C 10.09 g/m*3 18.7 C 0 km/h
578 16-08-2010 19:43:01 18.4 C 10.07 g/m*3 18.4 C 0 km/h
579 16-08-2010 19:55:02 18.2 C 10.26 g/m*3 18.2 C 0 km/h
580 16-08-2010 20:07:01 18.1 C 10.35 g/m*3 18.1 C 0 km/h
581 16-08-2010 20:19:02 18 C 10.44 g/m*3 18 C 0 km/h
582 16-08-2010 20:31:01 17.9 C 10.69 g/m*3 17.9 C 0 km/h
583 16-08-2010 20:43:01 17.8 C 10.78 g/m*3 17.8 C 0 km/h
584 16-08-2010 20:55:02 17.7 C 10.86 g/m*3 17.7 C 0 km/h
585 16-08-2010 21:07:01 17.6 C 11.1 g/m*3 17.6 C 0 km/h
586 16-08-2010 21:19:01 17.4 C 11.12 g/m*3 17.4 C 0 km/h
587 16-08-2010 21:31:02 17.3 C 11.34 g/m*3 17.3 C 0 km/h
588 16-08-2010 21:43:02 17.4 C 11.41 g/m*3 17.4 C 0 km/h
589 16-08-2010 21:55:02 17.5 C 11.63 g/m*3 17.5 C 0 km/h
590 16-08-2010 22:07:35 17.4 C 11.71 g/m*3 17.4 C 0 km/h
591 16-08-2010 22:20:03 17.5 C 11.78 g/m*3 17.5 C 0 km/h
592 16-08-2010 22:32:03 17.6 C 11.85 g/m*3 17.6 C 0 km/h
593 16-08-2010 22:44:03 17.7 C 11.92 g/m*3 17.7 C 0 km/h
594 16-08-2010 22:56:03 17.7 C 11.92 g/m*3 17.7 C 0 km/h
595 16-08-2010 23:08:03 17.8 C 12.14 g/m*3 17.8 C 0 km/h
596 16-08-2010 23:20:03 17.7 C 12.07 g/m*3 17.7 C 0 km/h
597 16-08-2010 23:32:03 17.7 C 12.07 g/m*3 17.7 C 0 km/h
598 16-08-2010 23:44:03 17.8 C 11.99 g/m*3 17.8 C 0 km/h
599 16-08-2010 23:56:03 17.8 C 11.99 g/m*3 17.8 C 0 km/h
600 17-08-2010 00:08:03 17.8 C 11.99 g/m*3 17.8 C 0 km/h
Sensor: Nr:Datum:Temp:Abs-Feuchte:Windchill:Wind:
Aussen-T/F 601 17-08-2010 00:20:03 17.8 C 11.99 g/m*3 17.8 C 0 km/h
602 17-08-2010 00:32:03 17.7 C 11.92 g/m*3 17.7 C 0 km/h
603 17-08-2010 00:44:03 17.5 C 11.78 g/m*3 17.5 C 0 km/h
604 17-08-2010 00:56:03 17.3 C 12.08 g/m*3 17.3 C 0 km/h
605 17-08-2010 01:08:03 17.1 C 12.08 g/m*3 17.1 C 0 km/h
606 17-08-2010 01:20:03 16.8 C 12.3 g/m*3 16.8 C 0 km/h
607 17-08-2010 01:32:03 16.6 C 12.29 g/m*3 16.6 C 0 km/h
608 17-08-2010 01:44:03 16.5 C 12.36 g/m*3 16.5 C 0 km/h
609 17-08-2010 01:56:03 16.4 C 12.42 g/m*3 16.4 C 0 km/h
610 17-08-2010 02:08:03 16.3 C 12.35 g/m*3 16.3 C 0 km/h
611 17-08-2010 02:20:03 16.5 C 12.5 g/m*3 16.5 C 0 km/h
612 17-08-2010 02:32:04 16.5 C 12.5 g/m*3 16.5 C 0 km/h
613 17-08-2010 02:44:04 16.6 C 12.43 g/m*3 16.6 C 0 km/h
614 17-08-2010 02:56:04 16.5 C 12.08 g/m*3 16.5 C 0 km/h
615 17-08-2010 03:08:04 16.4 C 11.86 g/m*3 16.4 C 0 km/h
616 17-08-2010 03:20:04 16.4 C 11.86 g/m*3 16.4 C 0 km/h
617 17-08-2010 03:32:04 16.4 C 11.86 g/m*3 16.4 C 0 km/h
618 17-08-2010 03:44:04 16.4 C 11.72 g/m*3 16.4 C 0 km/h
619 17-08-2010 03:56:04 16.5 C 11.65 g/m*3 16.5 C 0 km/h
620 17-08-2010 04:08:04 16.5 C 11.37 g/m*3 16.5 C 0 km/h
621 17-08-2010 04:20:04 16.4 C 11.31 g/m*3 16.4 C 0 km/h
622 17-08-2010 04:32:04 16.4 C 11.17 g/m*3 16.4 C 0 km/h
623 17-08-2010 04:44:04 16.4 C 11.03 g/m*3 16.4 C 0 km/h
624 17-08-2010 04:56:04 16.4 C 11.03 g/m*3 16.4 C 0 km/h
625 17-08-2010 05:08:04 16 C 11.04 g/m*3 16 C 0 km/h
Sensor: Nr:Datum:Temp:Abs-Feuchte:Windchill:Wind:
Aussen-T/F 626 17-08-2010 05:20:04 15.5 C 11.24 g/m*3 15.5 C 0 km/h
627 17-08-2010 05:32:05 15.4 C 11.43 g/m*3 15.4 C 0 km/h
628 17-08-2010 05:44:05 15.6 C 11.57 g/m*3 15.6 C 0 km/h
629 17-08-2010 05:56:05 15.6 C 11.44 g/m*3 15.6 C 0 km/h
630 17-08-2010 06:08:05 15.7 C 11.37 g/m*3 15.7 C 0 km/h
631 17-08-2010 06:20:05 15.8 C 11.31 g/m*3 15.8 C 0 km/h
632 17-08-2010 06:32:05 15.8 C 11.31 g/m*3 15.8 C 0 km/h
633 17-08-2010 06:44:05 15.9 C 11.24 g/m*3 15.9 C 0 km/h
634 17-08-2010 06:56:02 16 C 10.9 g/m*3 16 C 0 km/h
635 17-08-2010 07:08:02 16.2 C 10.89 g/m*3 16.2 C 0 km/h
636 17-08-2010 07:20:24 16.2 C 10.76 g/m*3 16.2 C 0 km/h
637 17-08-2010 07:32:02 16.3 C 10.96 g/m*3 16.3 C 0 km/h
638 17-08-2010 07:44:02 16.4 C 10.89 g/m*3 16.4 C 0 km/h
639 17-08-2010 07:56:01 16.7 C 10.66 g/m*3 16.7 C 0 km/h
640 17-08-2010 08:08:03 16.7 C 10.66 g/m*3 16.7 C 0 km/h
641 17-08-2010 08:20:01 16.8 C 10.58 g/m*3 16.8 C 0 km/h
642 17-08-2010 08:32:02 16.7 C 10.23 g/m*3 16.7 C 0 km/h
643 17-08-2010 08:44:02 16.7 C 10.09 g/m*3 16.7 C 0 km/h
644 17-08-2010 08:56:02 16.7 C 10.09 g/m*3 16.7 C 0 km/h
645 17-08-2010 09:08:02 16.8 C 10.01 g/m*3 16.8 C 0 km/h
646 17-08-2010 09:20:02 16.9 C 9.78 g/m*3 16.9 C 0 km/h
647 17-08-2010 09:32:02 16.9 C 9.64 g/m*3 16.9 C 0 km/h
648 17-08-2010 09:44:02 17.1 C 9.46 g/m*3 17.1 C 0 km/h
649 17-08-2010 09:56:02 17.2 C 9.37 g/m*3 17.2 C 0 km/h
650 17-08-2010 10:08:02 17 C 9.26 g/m*3 17 C 0 km/h
Sensor: Nr:Datum:Temp:Abs-Feuchte:Windchill:Wind:
Aussen-T/F 651 17-08-2010 10:20:01 17 C 9.26 g/m*3 17 C 0 km/h
652 17-08-2010 10:32:02 17 C 9.41 g/m*3 17 C 0 km/h
653 17-08-2010 10:44:02 17 C 9.41 g/m*3 17 C 0 km/h
654 17-08-2010 10:56:02 17.3 C 9.43 g/m*3 17.3 C 0 km/h
655 17-08-2010 11:08:02 17.6 C 9.45 g/m*3 17.6 C 0 km/h
656 17-08-2010 11:20:02 17.3 C 9.58 g/m*3 17.3 C 0 km/h
657 17-08-2010 11:32:02 17.6 C 9.3 g/m*3 17.6 C 0 km/h
658 17-08-2010 11:44:02 17.7 C 8.75 g/m*3 17.7 C 0 km/h
659 17-08-2010 11:56:02 17.7 C 8.9 g/m*3 17.7 C 0 km/h
660 17-08-2010 12:08:02 17.6 C 8.85 g/m*3 17.6 C 0 km/h
661 17-08-2010 12:20:02 16.8 C 9.58 g/m*3 16.8 C 0 km/h
662 17-08-2010 12:32:02 16 C 10.08 g/m*3 16 C 0 km/h
663 17-08-2010 12:44:02 16.4 C 11.03 g/m*3 16.4 C 0 km/h
664 17-08-2010 12:56:02 16.3 C 10.96 g/m*3 16.3 C 0 km/h
665 17-08-2010 13:08:02 16.5 C 11.23 g/m*3 16.5 C 0 km/h
666 17-08-2010 13:20:02 16.8 C 11.58 g/m*3 16.8 C 0 km/h
667 17-08-2010 13:32:02 17.7 C 11.92 g/m*3 17.7 C 0 km/h
668 17-08-2010 13:44:02 17.9 C 11.76 g/m*3 17.9 C 0 km/h
669 17-08-2010 13:56:02 17.6 C 12.15 g/m*3 17.6 C 0 km/h
670 17-08-2010 14:08:01 17.7 C 10.41 g/m*3 17.7 C 0 km/h
671 17-08-2010 14:20:02 17.3 C 9.28 g/m*3 17.3 C 0 km/h
672 17-08-2010 14:32:02 17.4 C 9.19 g/m*3 17.4 C 0 km/h
673 17-08-2010 14:44:02 18.1 C 8.65 g/m*3 18.1 C 0 km/h
674 17-08-2010 14:56:02 18.2 C 8.24 g/m*3 18.2 C 0 km/h
675 17-08-2010 15:08:01 17.9 C 7.94 g/m*3 17.9 C 0 km/h
Sensor: Nr:Datum:Temp:Abs-Feuchte:Windchill:Wind:
Aussen-T/F 676 17-08-2010 15:20:01 18.3 C 7.97 g/m*3 18.3 C 0 km/h
677 17-08-2010 15:32:02 18 C 7.99 g/m*3 18 C 0 km/h
678 17-08-2010 15:44:02 16 C 9.4 g/m*3 16 C 0 km/h
679 17-08-2010 15:56:02 15.2 C 9.99 g/m*3 15.2 C 0 km/h
680 17-08-2010 16:08:02 14.9 C 10.2 g/m*3 14.9 C 0 km/h
681 17-08-2010 16:20:01 14.6 C 10.01 g/m*3 14.6 C 0 km/h
682 17-08-2010 16:32:02 14.4 C 9.64 g/m*3 14.4 C 0 km/h
683 17-08-2010 16:44:02 14.8 C 9.37 g/m*3 14.8 C 0 km/h
684 17-08-2010 16:56:02 14.8 C 9.5 g/m*3 14.8 C 0 km/h
685 17-08-2010 17:08:02 14.5 C 9.45 g/m*3 14.5 C 0 km/h
686 17-08-2010 17:20:01 14.4 C 9.64 g/m*3 14.4 C 0 km/h
687 17-08-2010 17:32:02 14.2 C 9.77 g/m*3 14.2 C 0 km/h
688 17-08-2010 17:44:02 14.3 C 10.32 g/m*3 14.3 C 0 km/h
689 17-08-2010 17:56:02 14.7 C 10.7 g/m*3 14.7 C 0 km/h
690 17-08-2010 18:08:02 14.3 C 10.57 g/m*3 14.3 C 0 km/h
691 17-08-2010 18:20:02 14.4 C 10.75 g/m*3 14.4 C 0 km/h
692 17-08-2010 18:32:02 14.8 C 11.15 g/m*3 14.8 C 0 km/h
693 17-08-2010 18:44:02 15.2 C 11.29 g/m*3 15.2 C 0 km/h
694 17-08-2010 18:56:02 15.3 C 11.23 g/m*3 15.3 C 0 km/h
695 17-08-2010 19:08:02 15.2 C 11.16 g/m*3 15.2 C 0 km/h
696 17-08-2010 19:20:02 15 C 11.03 g/m*3 15 C 0 km/h
697 17-08-2010 19:32:02 14.8 C 11.02 g/m*3 14.8 C 0 km/h
698 17-08-2010 19:44:02 14.7 C 11.08 g/m*3 14.7 C 0 km/h
699 17-08-2010 19:56:02 14.5 C 10.94 g/m*3 14.5 C 0 km/h
700 17-08-2010 20:08:01 14.4 C 11 g/m*3 14.4 C 0 km/h
Sensor: Nr:Datum:Temp:Abs-Feuchte:Windchill:Wind:
Aussen-T/F 701 17-08-2010 20:20:02 14.4 C 11 g/m*3 14.4 C 0 km/h
702 17-08-2010 20:32:02 14.2 C 10.99 g/m*3 14.2 C 0 km/h
703 17-08-2010 20:44:02 14.3 C 11.06 g/m*3 14.3 C 0 km/h
704 17-08-2010 20:56:02 14.3 C 11.06 g/m*3 14.3 C 0 km/h
705 17-08-2010 21:08:03 14.3 C 11.18 g/m*3 14.3 C 0 km/h
706 17-08-2010 21:20:02 14.3 C 11.18 g/m*3 14.3 C 0 km/h
707 17-08-2010 21:32:02 14.3 C 11.3 g/m*3 14.3 C 0 km/h
708 17-08-2010 21:44:02 14.4 C 11.37 g/m*3 14.4 C 0 km/h
709 17-08-2010 21:57:04 14.6 C 11.51 g/m*3 14.6 C 0 km/h
710 17-08-2010 22:09:05 14.6 C 11.51 g/m*3 14.6 C 0 km/h
711 17-08-2010 22:21:05 14.4 C 11 g/m*3 14.4 C 0 km/h
712 17-08-2010 22:33:05 14.6 C 10.64 g/m*3 14.6 C 0 km/h
713 17-08-2010 22:45:05 14.7 C 10.45 g/m*3 14.7 C 0 km/h
714 17-08-2010 22:57:05 14.8 C 10.13 g/m*3 14.8 C 0 km/h
715 17-08-2010 23:09:05 14.9 C 10.2 g/m*3 14.9 C 0 km/h
716 17-08-2010 23:21:05 14.9 C 10.2 g/m*3 14.9 C 0 km/h
717 17-08-2010 23:33:05 15 C 10 g/m*3 15 C 0 km/h
718 17-08-2010 23:45:05 15 C 9.87 g/m*3 15 C 0 km/h
719 17-08-2010 23:57:05 15.2 C 9.99 g/m*3 15.2 C 0 km/h
720 18-08-2010 00:09:05 15.3 C 9.79 g/m*3 15.3 C 0 km/h
721 18-08-2010 00:21:05 15.4 C 9.72 g/m*3 15.4 C 0 km/h
722 18-08-2010 00:33:05 15.5 C 9.65 g/m*3 15.5 C 0 km/h
723 18-08-2010 00:45:05 15.7 C 9.63 g/m*3 15.7 C 0 km/h
724 18-08-2010 00:57:05 15.7 C 9.5 g/m*3 15.7 C 0 km/h
725 18-08-2010 01:09:05 15.7 C 9.5 g/m*3 15.7 C 0 km/h
Sensor: Nr:Datum:Temp:Abs-Feuchte:Windchill:Wind:
Aussen-T/F 726 18-08-2010 01:21:05 15.8 C 9.42 g/m*3 15.8 C 0 km/h
727 18-08-2010 01:33:05 15.8 C 9.42 g/m*3 15.8 C 0 km/h
728 18-08-2010 01:45:05 15.8 C 9.42 g/m*3 15.8 C 0 km/h
729 18-08-2010 01:57:05 15.7 C 9.37 g/m*3 15.7 C 0 km/h
730 18-08-2010 02:09:05 15.5 C 9.39 g/m*3 15.5 C 0 km/h
731 18-08-2010 02:21:05 15.6 C 9.44 g/m*3 15.6 C 0 km/h
732 18-08-2010 02:33:05 15.5 C 9.39 g/m*3 15.5 C 0 km/h
733 18-08-2010 02:45:06 15.6 C 9.44 g/m*3 15.6 C 0 km/h
734 18-08-2010 02:57:06 15.5 C 9.52 g/m*3 15.5 C 0 km/h
735 18-08-2010 03:09:06 15.5 C 9.52 g/m*3 15.5 C 0 km/h
736 18-08-2010 03:21:06 15.4 C 9.46 g/m*3 15.4 C 0 km/h
737 18-08-2010 03:33:06 15.5 C 9.52 g/m*3 15.5 C 0 km/h
738 18-08-2010 03:45:06 15.4 C 9.46 g/m*3 15.4 C 0 km/h
739 18-08-2010 03:57:06 15.5 C 9.52 g/m*3 15.5 C 0 km/h
740 18-08-2010 04:09:06 15.4 C 9.33 g/m*3 15.4 C 0 km/h
741 18-08-2010 04:21:06 15.4 C 9.46 g/m*3 15.4 C 0 km/h
742 18-08-2010 04:33:06 15.2 C 9.48 g/m*3 15.2 C 0 km/h
743 18-08-2010 04:45:06 15 C 9.62 g/m*3 15 C 0 km/h
744 18-08-2010 04:57:06 15 C 9.87 g/m*3 15 C 0 km/h
745 18-08-2010 05:09:06 15 C 9.87 g/m*3 15 C 0 km/h
746 18-08-2010 05:21:06 15 C 9.75 g/m*3 15 C 0 km/h
747 18-08-2010 05:33:06 14.9 C 9.81 g/m*3 14.9 C 0 km/h
748 18-08-2010 05:45:06 14.9 C 9.81 g/m*3 14.9 C 0 km/h
749 18-08-2010 05:57:06 15 C 9.75 g/m*3 15 C 0 km/h
750 18-08-2010 06:09:06 15 C 9.62 g/m*3 15 C 0 km/h
Sensor: Nr:Datum:Temp:Abs-Feuchte:Windchill:Wind:
Aussen-T/F 751 18-08-2010 06:21:04 15 C 9.62 g/m*3 15 C 0 km/h
752 18-08-2010 06:33:04 15 C 9.49 g/m*3 15 C 0 km/h
753 18-08-2010 06:45:02 15.2 C 9.61 g/m*3 15.2 C 0 km/h
754 18-08-2010 06:57:02 15.2 C 9.48 g/m*3 15.2 C 0 km/h
755 18-08-2010 07:09:01 15.2 C 9.48 g/m*3 15.2 C 0 km/h
756 18-08-2010 07:21:01 15.3 C 9.66 g/m*3 15.3 C 0 km/h
757 18-08-2010 07:33:02 15.4 C 9.72 g/m*3 15.4 C 0 km/h
758 18-08-2010 07:45:02 15.5 C 9.78 g/m*3 15.5 C 0 km/h
759 18-08-2010 07:57:02 15.8 C 9.83 g/m*3 15.8 C 0 km/h
760 18-08-2010 08:09:02 15.9 C 9.89 g/m*3 15.9 C 0 km/h
761 18-08-2010 08:21:01 16 C 9.81 g/m*3 16 C 0 km/h
762 18-08-2010 08:33:02 16.1 C 9.87 g/m*3 16.1 C 0 km/h
763 18-08-2010 08:45:02 16.3 C 9.85 g/m*3 16.3 C 0 km/h
764 18-08-2010 08:57:02 16.5 C 9.97 g/m*3 16.5 C 0 km/h
765 18-08-2010 09:09:02 16.7 C 10.23 g/m*3 16.7 C 0 km/h
766 18-08-2010 09:21:02 17 C 10.13 g/m*3 17 C 0 km/h
767 18-08-2010 09:33:02 17 C 10.13 g/m*3 17 C 0 km/h
768 18-08-2010 09:45:02 17.5 C 10.14 g/m*3 17.5 C 0 km/h
769 18-08-2010 09:57:02 17.3 C 10.16 g/m*3 17.3 C 0 km/h
770 18-08-2010 10:09:02 17.4 C 10.08 g/m*3 17.4 C 0 km/h
771 18-08-2010 10:21:02 17.8 C 10.32 g/m*3 17.8 C 0 km/h
772 18-08-2010 10:33:01 18 C 10.14 g/m*3 18 C 0 km/h
773 18-08-2010 10:45:02 18.5 C 10.28 g/m*3 18.5 C 0 km/h
774 18-08-2010 10:57:02 19.1 C 10.16 g/m*3 19.1 C 0 km/h
775 18-08-2010 11:09:01 18.8 C 9.99 g/m*3 18.8 C 0 km/h
Sensor: Nr:Datum:Temp:Abs-Feuchte:Windchill:Wind:
Aussen-T/F 776 18-08-2010 11:21:02 18.9 C 10.21 g/m*3 18.9 C 0 km/h
777 18-08-2010 11:33:02 18.5 C 10.13 g/m*3 18.5 C 0 km/h
778 18-08-2010 11:45:02 18.5 C 10.28 g/m*3 18.5 C 0 km/h
779 18-08-2010 11:57:02 18.8 C 10.31 g/m*3 18.8 C 0 km/h
780 18-08-2010 12:09:02 19.1 C 10.16 g/m*3 19.1 C 0 km/h
781 18-08-2010 12:21:02 18.9 C 10.69 g/m*3 18.9 C 0 km/h
782 18-08-2010 12:33:02 18.8 C 10.63 g/m*3 18.8 C 0 km/h
783 18-08-2010 12:45:02 18.3 C 10.94 g/m*3 18.3 C 0 km/h
784 18-08-2010 12:57:02 19 C 10.92 g/m*3 19 C 0 km/h
785 18-08-2010 13:09:02 20 C 10.54 g/m*3 20 C 0 km/h
786 18-08-2010 13:21:02 19.8 C 10.76 g/m*3 19.8 C 0 km/h
787 18-08-2010 13:33:02 20.4 C 10.26 g/m*3 20.4 C 0 km/h
788 18-08-2010 13:45:02 21.5 C 9.99 g/m*3 21.5 C 0 km/h
789 18-08-2010 13:57:02 22.3 C 9.48 g/m*3 22.3 C 0 km/h
790 18-08-2010 14:09:02 22.2 C 9.03 g/m*3 22.2 C 0 km/h
791 18-08-2010 14:21:02 22.7 C 9.29 g/m*3 22.7 C 0 km/h
792 18-08-2010 14:33:02 22.7 C 9.29 g/m*3 22.7 C 0 km/h
793 18-08-2010 14:45:02 23.2 C 8.73 g/m*3 23.2 C 0 km/h
794 18-08-2010 14:57:02 23.4 C 8.83 g/m*3 23.4 C 0 km/h
795 18-08-2010 15:09:02 22.5 C 8.99 g/m*3 22.5 C 0 km/h
796 18-08-2010 15:21:02 21.3 C 9.51 g/m*3 21.3 C 0 km/h
797 18-08-2010 15:33:02 22 C 9.12 g/m*3 22 C 0 km/h
798 18-08-2010 15:45:02 22.4 C 8.74 g/m*3 22.4 C 0 km/h
799 18-08-2010 15:57:02 23 C 8.63 g/m*3 23 C 0 km/h
800 18-08-2010 16:09:02 22.7 C 9.09 g/m*3 22.7 C 0 km/h
Sensor: Nr:Datum:Temp:Abs-Feuchte:Windchill:Wind:
Aussen-T/F 801 18-08-2010 16:21:02 22.8 C 9.35 g/m*3 22.8 C 0 km/h
802 18-08-2010 16:33:02 23.6 C 9.15 g/m*3 23.6 C 0 km/h
803 18-08-2010 16:45:01 24.5 C 8.73 g/m*3 24.5 C 0 km/h
804 18-08-2010 16:57:01 24.8 C 8.65 g/m*3 24.8 C 0 km/h
805 18-08-2010 17:09:01 24 C 8.7 g/m*3 24 C 0 km/h
806 18-08-2010 17:21:01 23.2 C 8.94 g/m*3 23.2 C 0 km/h
807 18-08-2010 17:33:02 23.5 C 8.88 g/m*3 23.5 C 0 km/h
808 18-08-2010 17:45:02 24.5 C 8.95 g/m*3 24.5 C 0 km/h
809 18-08-2010 17:57:02 24.2 C 8.8 g/m*3 24.2 C 0 km/h
810 18-08-2010 18:09:02 22.8 C 9.35 g/m*3 22.8 C 0 km/h
811 18-08-2010 18:21:01 22.9 C 9.4 g/m*3 22.9 C 0 km/h
812 18-08-2010 18:33:02 22.2 C 9.03 g/m*3 22.2 C 0 km/h
813 18-08-2010 18:45:02 22 C 9.12 g/m*3 22 C 0 km/h
814 18-08-2010 18:57:02 21.9 C 8.88 g/m*3 21.9 C 0 km/h
815 18-08-2010 19:09:02 21.3 C 8.95 g/m*3 21.3 C 0 km/h
816 18-08-2010 19:21:01 21.1 C 9.03 g/m*3 21.1 C 0 km/h
817 18-08-2010 19:33:02 20.8 C 9.23 g/m*3 20.8 C 0 km/h
818 18-08-2010 19:45:01 20.4 C 9.38 g/m*3 20.4 C 0 km/h
819 18-08-2010 19:57:01 19.8 C 10.08 g/m*3 19.8 C 0 km/h
820 18-08-2010 20:09:02 19.2 C 10.22 g/m*3 19.2 C 0 km/h
821 18-08-2010 20:21:02 19.5 C 10.07 g/m*3 19.5 C 0 km/h
822 18-08-2010 20:33:02 19.5 C 9.9 g/m*3 19.5 C 0 km/h
823 18-08-2010 20:45:02 19.5 C 9.9 g/m*3 19.5 C 0 km/h
824 18-08-2010 20:57:02 19.5 C 9.9 g/m*3 19.5 C 0 km/h
825 18-08-2010 21:09:01 19.3 C 9.95 g/m*3 19.3 C 0 km/h
Sensor: Nr:Datum:Temp:Abs-Feuchte:Windchill:Wind:
Aussen-T/F 826 18-08-2010 21:21:02 19.1 C 10 g/m*3 19.1 C 0 km/h
827 18-08-2010 21:33:01 18.7 C 10.25 g/m*3 18.7 C 0 km/h
828 18-08-2010 21:45:02 18.7 C 10.41 g/m*3 18.7 C 0 km/h
829 18-08-2010 21:57:02 18.3 C 10.32 g/m*3 18.3 C 0 km/h
830 18-08-2010 22:09:01 18.1 C 10.51 g/m*3 18.1 C 0 km/h
831 18-08-2010 22:22:04 17.7 C 10.56 g/m*3 17.7 C 0 km/h
832 18-08-2010 22:34:04 17.5 C 10.59 g/m*3 17.5 C 0 km/h
833 18-08-2010 22:46:04 17.3 C 10.61 g/m*3 17.3 C 0 km/h
834 18-08-2010 22:58:04 17.4 C 10.67 g/m*3 17.4 C 0 km/h
835 18-08-2010 23:10:04 17.6 C 10.8 g/m*3 17.6 C 0 km/h
836 18-08-2010 23:22:04 17.7 C 10.56 g/m*3 17.7 C 0 km/h
837 18-08-2010 23:34:04 17.6 C 10.2 g/m*3 17.6 C 0 km/h
838 18-08-2010 23:46:04 17.5 C 9.69 g/m*3 17.5 C 0 km/h
839 18-08-2010 23:58:04 17.5 C 9.69 g/m*3 17.5 C 0 km/h

Legende:
   Min
   Max


Maximal/Minimal-Werte vom 12.08.2010 - 18.08.2010

Sensor Min Max Avg
Temp
(Aussen-T/F)
11 °C
14-08-2010  06:44:05
31.5 °C
14-08-2010  18:20:01
18.04 °C
Abs-Feuchte
(Aussen-T/F)
4.9 g/m*3
12-08-2010  17:54:02
14.46 g/m*3
12-08-2010  00:06:02
10.12 g/m*3
Windchill
(Aussen-T/F)
11 C
14-08-2010  06:44:05
31.5 C
14-08-2010  18:20:01
18.02 C

Die Daten stammen von einer Davis Vantage Pro 2 Wetter-Station und werden unter Linux mit der Software wview2wettercgi und aufbereitet. Alle Angaben erfolgen ohne Gewähr für ihre Vollständigkeit oder Richtigkeit.
Kontakt: Rainer Krienke krienke@uni-koblenz.de . Meine Webseiten an der Uni Koblenz oder privat.
Version: $Revision: 0.78 $